Time;durP1;ratioP1;P1;durP2;ratioP2;P2;SDS_P1;SDS_P2;PMS_P1;PMS_P2;Temp;Humidity;BMP_temperature;BMP_pressure;BME280_temperature;BME280_humidity;BME280_pressure;Samples;Min_cycle;Max_cycle;Signal;HPM_P1;HPM_P2
2024/01/24 00:02:13;;;;;;;12.90;4.60;;;10.40;99.90;;;;;;4995104;28;20806;-69
2024/01/24 00:04:41;;;;;;;7.77;2.77;;;10.30;99.90;;;;;;5011886;28;21078;-66
2024/01/24 00:07:08;;;;;;;18.40;3.30;;;10.50;99.90;;;;;;4993684;28;20482;-68
2024/01/24 00:09:35;;;;;;;10.30;2.20;;;10.50;99.90;;;;;;4998483;28;20485;-67
2024/01/24 00:12:02;;;;;;;7.00;2.50;;;10.50;99.90;;;;;;5001694;28;20469;-68
2024/01/24 00:14:29;;;;;;;12.73;2.30;;;10.50;99.90;;;;;;4991796;28;20555;-71
2024/01/24 00:16:56;;;;;;;12.97;4.50;;;10.60;99.90;;;;;;4994988;28;20821;-67
2024/01/24 00:19:23;;;;;;;18.83;3.27;;;10.70;99.90;;;;;;4985064;28;20490;-68
2024/01/24 00:21:51;;;;;;;9.70;4.27;;;10.60;99.90;;;;;;5000813;28;20960;-68
2024/01/24 00:24:18;;;;;;;24.60;3.83;;;10.80;99.90;;;;;;4995794;28;20478;-70
2024/01/24 00:26:45;;;;;;;8.20;1.87;;;10.70;99.90;;;;;;4992099;28;20492;-68
2024/01/24 00:29:12;;;;;;;6.90;2.03;;;10.80;99.90;;;;;;4996128;28;20829;-71
2024/01/24 00:31:39;;;;;;;19.63;4.50;;;10.70;99.90;;;;;;4996213;28;20477;-70
2024/01/24 00:34:06;;;;;;;17.63;3.43;;;10.90;99.90;;;;;;4984091;28;20806;-68
2024/01/24 00:36:33;;;;;;;12.53;3.23;;;10.90;99.90;;;;;;5001386;28;20486;-67
2024/01/24 00:39:02;;;;;;;11.70;2.30;;;10.90;99.90;;;;;;4991440;28;20491;-69
2024/01/24 00:41:29;;;;;;;10.93;3.27;;;10.80;99.90;;;;;;4991880;28;20489;-67
2024/01/24 00:43:55;;;;;;;9.40;2.80;;;10.90;99.90;;;;;;4982339;28;20635;-69
2024/01/24 00:46:22;;;;;;;10.03;2.20;;;10.70;99.90;;;;;;4989966;28;20493;-68
2024/01/24 00:48:49;;;;;;;13.23;2.87;;;10.90;99.90;;;;;;4993669;28;20920;-67
2024/01/24 00:51:16;;;;;;;12.87;3.40;;;11.00;99.90;;;;;;4968404;28;20496;-71
2024/01/24 00:53:50;;;;;;;10.57;4.00;;;10.90;99.90;;;;;;4991781;28;20484;-68
2024/01/24 00:56:19;;;;;;;6.20;3.23;;;10.90;99.90;;;;;;4999074;28;20917;-66
2024/01/24 00:58:46;;;;;;;20.10;4.70;;;;;;;;;;4999392;28;21488;-68
2024/01/24 01:01:13;;;;;;;6.87;2.50;;;10.90;99.90;;;;;;4984680;28;20473;-67
2024/01/24 01:03:40;;;;;;;7.77;3.03;;;11.00;99.90;;;;;;4991281;28;20514;-68
2024/01/24 01:06:07;;;;;;;14.53;2.73;;;10.90;99.90;;;;;;4987055;28;20652;-67
2024/01/24 01:08:34;;;;;;;12.63;3.10;;;10.90;99.90;;;;;;4990823;28;20493;-70
2024/01/24 01:11:01;;;;;;;11.13;4.20;;;10.90;99.90;;;;;;4997415;28;20733;-71
2024/01/24 01:13:32;;;;;;;8.83;2.00;;;10.80;99.90;;;;;;4984467;28;20489;-70
2024/01/24 01:15:59;;;;;;;14.47;3.40;;;11.00;99.90;;;;;;5005931;28;20517;-70
2024/01/24 01:18:26;;;;;;;8.17;3.10;;;10.90;99.90;;;;;;5001325;28;21093;-67
2024/01/24 01:20:53;;;;;;;15.03;4.60;;;10.80;99.90;;;;;;4987162;28;20485;-71
2024/01/24 01:23:20;;;;;;;12.13;2.87;;;10.80;99.90;;;;;;4994272;28;20492;-66
2024/01/24 01:25:46;;;;;;;7.90;3.10;;;10.80;99.90;;;;;;4985236;28;20484;-68
2024/01/24 01:28:13;;;;;;;36.27;3.63;;;10.80;99.90;;;;;;4997923;28;20540;-62
2024/01/24 01:30:42;;;;;;;10.20;4.43;;;10.80;99.90;;;;;;4996672;28;20532;-63
2024/01/24 01:33:08;;;;;;;14.13;3.50;;;10.90;99.90;;;;;;4981941;28;20560;-64
2024/01/24 01:35:35;;;;;;;6.63;2.20;;;10.90;99.90;;;;;;5006791;28;20498;-63
2024/01/24 01:38:02;;;;;;;10.30;2.10;;;10.90;99.90;;;;;;4979509;28;20919;-64
2024/01/24 01:40:29;;;;;;;10.50;3.37;;;10.80;99.90;;;;;;4996878;28;20489;-64
2024/01/24 01:42:56;;;;;;;9.37;2.83;;;10.70;99.90;;;;;;4985356;28;20471;-63
2024/01/24 01:45:23;;;;;;;7.90;2.23;;;10.80;99.90;;;;;;5006421;28;20763;-63
2024/01/24 01:47:52;;;;;;;10.93;3.90;;;10.70;99.90;;;;;;4992931;28;20930;-64
2024/01/24 01:50:20;;;;;;;11.37;2.80;;;10.70;99.90;;;;;;4976515;28;20495;-64
2024/01/24 01:52:47;;;;;;;12.90;2.90;;;10.80;99.90;;;;;;4995762;28;20493;-64
2024/01/24 01:55:16;;;;;;;6.90;3.60;;;10.60;99.90;;;;;;4994863;28;20830;-63
2024/01/24 01:57:45;;;;;;;11.20;3.07;;;10.80;99.90;;;;;;4995152;28;20481;-64
2024/01/24 02:00:20;;;;;;;17.37;4.60;;;10.90;99.90;;;;;;4979113;28;20493;-64
2024/01/24 02:02:47;;;;;;;18.57;3.33;;;10.90;99.90;;;;;;4993860;28;20527;-63
2024/01/24 02:05:16;;;;;;;26.83;4.33;;;10.80;99.90;;;;;;4995538;28;20899;-64
2024/01/24 02:07:44;;;;;;;6.80;2.27;;;10.70;99.90;;;;;;4994968;28;20955;-64
2024/01/24 02:10:12;;;;;;;10.03;3.20;;;10.80;99.90;;;;;;4996041;28;20489;-64
2024/01/24 02:12:38;;;;;;;17.63;4.90;;;10.80;99.90;;;;;;4988183;28;20881;-62
2024/01/24 02:15:07;;;;;;;9.57;2.60;;;10.70;99.90;;;;;;4984059;28;20474;-64
2024/01/24 02:17:35;;;;;;;12.17;3.37;;;10.80;99.90;;;;;;4982176;28;20520;-65
2024/01/24 02:20:03;;;;;;;13.90;3.80;;;10.80;99.90;;;;;;4985642;28;20497;-64
2024/01/24 02:22:31;;;;;;;9.90;2.70;;;10.80;99.90;;;;;;4990014;28;20875;-64
2024/01/24 02:25:00;;;;;;;8.93;3.13;;;10.80;99.90;;;;;;4987093;28;20563;-63
2024/01/24 02:27:26;;;;;;;8.83;4.20;;;10.70;99.90;;;;;;4990061;28;20921;-64
2024/01/24 02:29:56;;;;;;;13.67;4.73;;;10.70;99.90;;;;;;4978871;28;20472;-65
2024/01/24 02:32:24;;;;;;;8.30;3.37;;;10.60;99.90;;;;;;4999642;28;20539;-64
2024/01/24 02:34:51;;;;;;;25.27;5.07;;;;;;;;;;4995120;28;20897;-66
2024/01/24 02:37:20;;;;;;;10.30;3.87;;;10.60;99.90;;;;;;4997721;28;20482;-65
2024/01/24 02:39:47;;;;;;;13.50;3.33;;;10.70;99.90;;;;;;4986428;28;20977;-64
2024/01/24 02:42:16;;;;;;;7.40;2.77;;;10.80;99.90;;;;;;4995237;28;21022;-63
2024/01/24 02:44:43;;;;;;;17.60;3.77;;;10.80;99.90;;;;;;4994210;28;20555;-66
2024/01/24 02:47:11;;;;;;;7.27;2.73;;;10.70;99.90;;;;;;4986430;28;20485;-64
2024/01/24 02:49:40;;;;;;;18.10;4.00;;;10.80;99.90;;;;;;4997216;28;20488;-65
2024/01/24 02:52:07;;;;;;;6.63;3.40;;;10.60;99.90;;;;;;4994035;28;20489;-65
2024/01/24 02:54:37;;;;;;;10.00;2.60;;;10.80;99.90;;;;;;4986985;28;20527;-65
2024/01/24 02:57:04;;;;;;;13.77;3.20;;;10.90;99.90;;;;;;4994445;28;20551;-63
2024/01/24 02:59:33;;;;;;;14.17;3.83;;;10.90;99.90;;;;;;4981427;28;20497;-63
2024/01/24 03:02:00;;;;;;;11.40;3.13;;;10.90;99.90;;;;;;4996064;28;20500;-66
2024/01/24 03:04:27;;;;;;;3.57;2.30;;;11.00;99.90;;;;;;5010417;28;20842;-65
2024/01/24 03:06:55;;;;;;;9.27;3.87;;;11.00;99.90;;;;;;4994099;28;20532;-65
2024/01/24 03:09:22;;;;;;;17.10;3.70;;;11.00;99.90;;;;;;4980634;28;20560;-64
2024/01/24 03:11:49;;;;;;;3.73;1.83;;;11.00;99.90;;;;;;4990730;28;20463;-64
2024/01/24 03:14:16;;;;;;;7.00;2.30;;;11.00;99.90;;;;;;4991694;28;20606;-64
2024/01/24 03:16:44;;;;;;;14.57;3.13;;;11.10;99.90;;;;;;4987114;28;20473;-65
2024/01/24 03:19:11;;;;;;;3.63;2.50;;;11.10;99.90;;;;;;4992359;28;20522;-62
2024/01/24 03:21:38;;;;;;;5.10;3.40;;;11.10;99.90;;;;;;4994089;28;20885;-64
2024/01/24 03:24:06;;;;;;;9.50;2.97;;;11.20;99.90;;;;;;4985319;28;20872;-63
2024/01/24 03:26:33;;;;;;;4.90;2.10;;;11.20;99.90;;;;;;4988940;28;20907;-63
2024/01/24 03:29:00;;;;;;;8.87;2.87;;;11.20;99.90;;;;;;4997958;28;20485;-65
2024/01/24 03:31:26;;;;;;;7.93;4.13;;;11.20;99.90;;;;;;4987252;28;20476;-65
2024/01/24 03:33:55;;;;;;;4.40;1.80;;;11.10;99.90;;;;;;4992187;28;20485;-64
2024/01/24 03:36:22;;;;;;;3.57;2.87;;;11.10;99.90;;;;;;4998627;28;20535;-63
2024/01/24 03:38:49;;;;;;;7.77;3.63;;;11.10;99.90;;;;;;5000738;28;20845;-65
2024/01/24 03:41:16;;;;;;;4.83;3.57;;;11.00;99.90;;;;;;4982605;28;21027;-63
2024/01/24 03:43:43;;;;;;;12.03;4.17;;;11.00;99.90;;;;;;4986691;28;20508;-63
2024/01/24 03:46:10;;;;;;;4.73;2.63;;;11.00;99.90;;;;;;4984863;28;20536;-63
2024/01/24 03:48:37;;;;;;;14.13;3.10;;;11.00;99.90;;;;;;4991360;28;20831;-64
2024/01/24 03:51:10;;;;;;;12.80;2.80;;;11.10;99.90;;;;;;4958954;28;20516;-63
2024/01/24 03:53:37;;;;;;;5.40;3.50;;;11.20;99.90;;;;;;4992849;28;20485;-64
2024/01/24 03:56:04;;;;;;;7.37;2.77;;;11.20;99.90;;;;;;4989031;28;21015;-63
2024/01/24 03:58:31;;;;;;;11.50;2.40;;;11.20;99.90;;;;;;4987573;28;20898;-65
2024/01/24 04:00:58;;;;;;;3.57;1.93;;;11.20;99.90;;;;;;4986582;28;20574;-63
2024/01/24 04:03:25;;;;;;;4.00;1.93;;;11.20;99.90;;;;;;4993453;28;20894;-63
2024/01/24 04:05:52;;;;;;;10.13;3.70;;;11.00;99.90;;;;;;4982242;28;20612;-65
2024/01/24 04:08:20;;;;;;;6.03;3.00;;;11.10;99.90;;;;;;4991786;28;20507;-64
2024/01/24 04:10:47;;;;;;;3.03;1.77;;;11.10;99.90;;;;;;4976587;28;20718;-62
2024/01/24 04:13:15;;;;;;;3.83;2.73;;;11.00;99.90;;;;;;4984413;28;20519;-64
2024/01/24 04:15:42;;;;;;;5.93;3.30;;;11.10;99.90;;;;;;5005743;28;20477;-63
2024/01/24 04:18:09;;;;;;;13.03;2.70;;;11.10;99.90;;;;;;4982957;28;20487;-63
2024/01/24 04:20:36;;;;;;;6.40;3.90;;;10.90;99.90;;;;;;4983156;28;20623;-63
2024/01/24 04:23:03;;;;;;;11.60;2.33;;;10.90;99.90;;;;;;4986322;28;20561;-62
2024/01/24 04:25:32;;;;;;;5.73;3.07;;;10.90;99.90;;;;;;4989466;28;20893;-63
2024/01/24 04:27:59;;;;;;;2.37;1.07;;;10.90;99.90;;;;;;4983776;28;20533;-63
2024/01/24 04:30:26;;;;;;;4.40;1.73;;;11.10;99.90;;;;;;5000095;28;20558;-65
2024/01/24 04:32:53;;;;;;;9.37;1.90;;;11.00;99.90;;;;;;4995258;28;20488;-65
2024/01/24 04:35:20;;;;;;;5.07;2.10;;;10.90;99.90;;;;;;4990427;28;20486;-64
2024/01/24 04:37:47;;;;;;;3.30;1.50;;;11.00;99.90;;;;;;4993528;28;20563;-64
2024/01/24 04:40:13;;;;;;;18.87;2.77;;;11.00;99.90;;;;;;4980273;28;20488;-62
2024/01/24 04:42:42;;;;;;;4.07;2.40;;;11.10;99.90;;;;;;4990771;28;20603;-65
2024/01/24 04:45:10;;;;;;;2.30;1.70;;;10.90;99.90;;;;;;4993033;28;20488;-64
2024/01/24 04:47:38;;;;;;;3.33;2.00;;;11.00;99.90;;;;;;4984449;28;20494;-63
2024/01/24 04:50:06;;;;;;;4.57;1.70;;;11.10;99.90;;;;;;4993963;28;20477;-65
2024/01/24 04:52:34;;;;;;;12.23;2.03;;;11.20;99.90;;;;;;4958647;28;20481;-63
2024/01/24 04:55:01;;;;;;;2.40;1.93;;;11.20;99.90;;;;;;4988458;28;20474;-64
2024/01/24 04:57:28;;;;;;;7.47;1.63;;;11.20;99.90;;;;;;4986791;28;20550;-63
2024/01/24 04:59:57;;;;;;;14.23;2.43;;;11.20;99.90;;;;;;4985828;28;20481;-71
2024/01/24 05:02:23;;;;;;;3.10;1.50;;;11.20;99.90;;;;;;4959601;28;20504;-72
2024/01/24 05:04:50;;;;;;;6.70;1.97;;;11.30;99.90;;;;;;4992174;28;20485;-68
2024/01/24 05:07:17;;;;;;;12.83;2.40;;;11.20;99.90;;;;;;4989103;28;20488;-68
2024/01/24 05:09:44;;;;;;;2.73;1.43;;;11.30;99.90;;;;;;4993006;28;20512;-66
2024/01/24 05:12:11;;;;;;;2.10;1.90;;;11.30;99.90;;;;;;4991801;28;20482;-69
2024/01/24 05:14:38;;;;;;;2.43;1.57;;;11.40;99.90;;;;;;4979464;28;20894;-73
2024/01/24 05:17:07;;;;;;;2.33;1.60;;;11.40;99.90;;;;;;4989651;28;20507;-69
2024/01/24 05:19:34;;;;;;;2.40;1.50;;;11.40;99.90;;;;;;4988345;28;20542;-69
2024/01/24 05:22:00;;;;;;;2.60;1.90;;;11.30;99.90;;;;;;4986697;28;21015;-71
2024/01/24 05:24:27;;;;;;;8.63;1.30;;;11.40;99.90;;;;;;4978288;28;20483;-70
2024/01/24 05:26:54;;;;;;;5.37;1.50;;;11.40;99.90;;;;;;4990542;28;20903;-69
2024/01/24 05:29:21;;;;;;;3.00;1.37;;;11.40;99.90;;;;;;4989797;28;20489;-71
2024/01/24 05:31:48;;;;;;;6.80;1.20;;;11.50;99.90;;;;;;4983076;28;20930;-69
2024/01/24 05:34:16;;;;;;;17.37;2.00;;;11.50;99.90;;;;;;4998502;28;20469;-68
2024/01/24 05:36:43;;;;;;;2.20;1.30;;;11.60;99.90;;;;;;4999009;28;20539;-68
2024/01/24 05:39:10;;;;;;;1.70;1.10;;;11.40;99.90;;;;;;4979870;28;20801;-68
2024/01/24 05:41:37;;;;;;;2.43;1.00;;;11.60;99.90;;;;;;4994345;28;20480;-68
2024/01/24 05:44:04;;;;;;;5.30;1.20;;;11.60;99.90;;;;;;4992740;28;20536;-68
2024/01/24 05:46:31;;;;;;;1.77;1.27;;;11.70;99.90;;;;;;4981380;28;20496;-66
2024/01/24 05:49:00;;;;;;;6.73;1.50;;;11.70;99.90;;;;;;4980924;28;20494;-69
2024/01/24 05:51:28;;;;;;;1.80;1.30;;;11.70;99.90;;;;;;4989206;28;20904;-70
2024/01/24 05:53:55;;;;;;;1.90;1.17;;;11.80;99.90;;;;;;4981529;28;20693;-70
2024/01/24 05:56:22;;;;;;;2.40;1.20;;;11.70;99.90;;;;;;4984160;28;20484;-69
2024/01/24 05:58:49;;;;;;;2.00;1.27;;;11.70;99.90;;;;;;4991765;28;20480;-70
2024/01/24 06:01:16;;;;;;;4.10;1.60;;;;;;;;;;4974581;28;20489;-68
2024/01/24 06:03:43;;;;;;;6.80;1.90;;;11.70;99.90;;;;;;4989882;28;20478;-69
2024/01/24 06:06:10;;;;;;;2.83;1.07;;;11.80;99.90;;;;;;4997873;28;20532;-69
2024/01/24 06:08:38;;;;;;;15.53;6.20;;;11.60;99.90;;;;;;4988078;28;20484;-68
2024/01/24 06:11:05;;;;;;;1.90;1.60;;;11.70;99.90;;;;;;5002224;28;20480;-71
2024/01/24 06:13:32;;;;;;;1.90;1.50;;;11.80;99.90;;;;;;4990568;28;20552;-69
2024/01/24 06:15:59;;;;;;;2.20;1.50;;;11.80;99.90;;;;;;4973146;28;20477;-68
2024/01/24 06:18:26;;;;;;;5.87;1.40;;;11.80;99.90;;;;;;4978077;28;20510;-69
2024/01/24 06:20:53;;;;;;;1.80;1.13;;;11.90;99.90;;;;;;4986333;28;20485;-70
2024/01/24 06:23:20;;;;;;;2.30;1.40;;;;;;;;;;4987615;28;20484;-70
2024/01/24 06:25:48;;;;;;;3.53;1.20;;;11.90;99.90;;;;;;4984246;28;20552;-69
2024/01/24 06:28:15;;;;;;;2.00;1.10;;;11.90;99.90;;;;;;4987695;28;20852;-69
2024/01/24 06:30:42;;;;;;;2.43;1.63;;;11.90;99.90;;;;;;4980658;28;20945;-71
2024/01/24 06:33:09;;;;;;;1.70;1.10;;;11.90;99.90;;;;;;4979841;28;21115;-72
2024/01/24 06:35:36;;;;;;;2.20;1.70;;;;;;;;;;4989078;28;21063;-68
2024/01/24 06:38:03;;;;;;;9.90;2.00;;;11.90;99.90;;;;;;4987622;28;20919;-72
2024/01/24 06:40:31;;;;;;;4.17;1.70;;;11.90;99.90;;;;;;4985852;28;20901;-72
2024/01/24 06:42:59;;;;;;;8.43;2.30;;;12.00;99.90;;;;;;4984254;28;20496;-68
2024/01/24 06:45:26;;;;;;;2.43;2.03;;;12.00;99.90;;;;;;4992680;28;20509;-69
2024/01/24 06:47:53;;;;;;;2.27;1.73;;;12.00;99.90;;;;;;4999503;28;20565;-70
2024/01/24 06:50:20;;;;;;;6.50;1.93;;;12.00;99.90;;;;;;4979374;28;20492;-70
2024/01/24 06:52:47;;;;;;;2.00;1.20;;;11.90;99.90;;;;;;4987228;28;20500;-68
2024/01/24 06:55:15;;;;;;;2.30;1.50;;;12.00;99.90;;;;;;5006972;28;21030;-68
2024/01/24 06:57:41;;;;;;;2.10;1.40;;;12.00;99.90;;;;;;4991981;28;20485;-73
2024/01/24 07:00:11;;;;;;;2.60;1.97;;;12.00;99.90;;;;;;5000417;28;20481;-71
2024/01/24 07:02:38;;;;;;;2.10;1.37;;;12.10;99.90;;;;;;4986869;28;20542;-68
2024/01/24 07:05:06;;;;;;;1.73;1.10;;;12.10;99.90;;;;;;4991190;28;20482;-69
2024/01/24 07:07:33;;;;;;;1.90;1.23;;;12.10;99.90;;;;;;4985661;28;20485;-70
2024/01/24 07:10:00;;;;;;;2.63;2.43;;;12.10;99.90;;;;;;4984910;28;20489;-71
2024/01/24 07:12:27;;;;;;;4.23;2.00;;;11.80;99.90;;;;;;4993592;28;21099;-69
2024/01/24 07:14:54;;;;;;;1.70;1.20;;;11.90;99.90;;;;;;4990313;28;20485;-69
2024/01/24 07:17:23;;;;;;;12.87;2.13;;;11.90;99.90;;;;;;4982322;28;20489;-69
2024/01/24 07:19:51;;;;;;;2.50;2.30;;;12.00;99.90;;;;;;4959504;28;20489;-63
2024/01/24 07:22:17;;;;;;;2.03;1.30;;;11.90;99.90;;;;;;4974967;28;20483;-67
2024/01/24 07:24:45;;;;;;;7.33;1.57;;;11.90;99.90;;;;;;4986230;28;20551;-67
2024/01/24 07:27:12;;;;;;;1.90;1.10;;;11.90;99.90;;;;;;4983912;28;20485;-71
2024/01/24 07:29:38;;;;;;;1.77;1.53;;;12.10;99.90;;;;;;5009286;28;21018;-68
2024/01/24 07:32:06;;;;;;;4.23;1.70;;;12.10;99.90;;;;;;4995871;28;20542;-68
2024/01/24 07:34:35;;;;;;;1.70;1.00;;;12.20;99.90;;;;;;4984417;28;20484;-67
2024/01/24 07:37:03;;;;;;;3.80;1.30;;;12.30;99.90;;;;;;5003242;28;20492;-67
2024/01/24 07:39:30;;;;;;;2.00;1.00;;;12.30;99.90;;;;;;4992319;28;20932;-70
2024/01/24 07:41:57;;;;;;;1.80;1.03;;;12.20;99.90;;;;;;4989051;28;20563;-66
2024/01/24 07:44:25;;;;;;;1.83;1.47;;;12.20;99.90;;;;;;4984191;28;20497;-71
2024/01/24 07:46:52;;;;;;;5.60;1.23;;;12.30;99.90;;;;;;4992917;28;20563;-67
2024/01/24 07:49:19;;;;;;;2.13;1.23;;;12.30;99.90;;;;;;4991668;28;20567;-70
2024/01/24 07:51:48;;;;;;;9.77;1.30;;;12.40;99.90;;;;;;4974835;28;20484;-69
2024/01/24 07:54:17;;;;;;;2.10;1.00;;;12.30;99.90;;;;;;5000726;28;20544;-71
2024/01/24 07:56:44;;;;;;;4.23;1.00;;;12.40;99.90;;;;;;4990688;28;20517;-71
2024/01/24 07:59:15;;;;;;;7.53;1.47;;;12.30;99.90;;;;;;4978046;28;20479;-67
2024/01/24 08:01:45;;;;;;;5.63;1.30;;;12.40;99.90;;;;;;4978478;28;20478;-68
2024/01/24 08:04:12;;;;;;;1.70;1.00;;;12.40;99.90;;;;;;4979507;28;20509;-67
2024/01/24 08:06:40;;;;;;;1.70;1.20;;;12.50;99.90;;;;;;4964765;28;20576;-69
2024/01/24 08:09:08;;;;;;;1.80;1.10;;;12.40;99.90;;;;;;4982722;28;20485;-69
2024/01/24 08:11:35;;;;;;;1.80;1.30;;;12.40;99.90;;;;;;4986506;28;20513;-70
2024/01/24 08:14:02;;;;;;;1.70;1.23;;;12.30;99.90;;;;;;4984352;28;20536;-68
2024/01/24 08:16:28;;;;;;;1.80;1.03;;;12.20;99.90;;;;;;4964848;28;20539;-70
2024/01/24 08:18:58;;;;;;;9.80;1.30;;;;;;;;;;4991766;28;20885;-70
2024/01/24 08:21:24;;;;;;;1.93;1.73;;;12.30;99.90;;;;;;4982013;28;20501;-66
2024/01/24 08:23:52;;;;;;;1.63;0.80;;;12.40;99.90;;;;;;4992316;28;20825;-69
2024/01/24 08:26:20;;;;;;;5.53;1.20;;;12.50;99.90;;;;;;4983620;28;20547;-70
2024/01/24 08:28:47;;;;;;;5.33;1.20;;;12.50;99.90;;;;;;4993414;28;20532;-70
2024/01/24 08:31:14;;;;;;;1.80;0.90;;;12.60;99.90;;;;;;4997642;28;21027;-66
2024/01/24 08:33:41;;;;;;;4.20;1.20;;;12.60;99.90;;;;;;4977465;28;20489;-64
2024/01/24 08:36:09;;;;;;;6.93;1.00;;;12.70;99.90;;;;;;4988982;28;20566;-64
2024/01/24 08:38:36;;;;;;;1.60;0.73;;;12.70;99.90;;;;;;4990954;28;20862;-63
2024/01/24 08:41:04;;;;;;;2.83;1.00;;;12.60;99.90;;;;;;4995668;28;20489;-63
2024/01/24 08:43:32;;;;;;;1.53;0.77;;;12.70;99.90;;;;;;4995645;28;20477;-64
2024/01/24 08:45:59;;;;;;;1.60;0.80;;;12.70;99.90;;;;;;4981421;28;20485;-63
2024/01/24 08:48:26;;;;;;;1.60;0.70;;;12.80;99.90;;;;;;4982156;28;20679;-65
2024/01/24 08:50:53;;;;;;;1.60;0.70;;;12.80;99.90;;;;;;4996285;28;20481;-64
2024/01/24 08:53:21;;;;;;;8.03;1.03;;;;;;;;;;4979704;28;20485;-64
2024/01/24 08:55:48;;;;;;;6.70;0.93;;;13.00;99.90;;;;;;4993659;28;20899;-63
2024/01/24 08:58:15;;;;;;;5.20;1.00;;;13.10;99.90;;;;;;4980258;28;20918;-63
2024/01/24 09:00:44;;;;;;;16.83;1.33;;;13.20;99.90;;;;;;4995483;28;20478;-64
2024/01/24 09:03:12;;;;;;;1.50;0.50;;;13.20;99.90;;;;;;4991356;28;20481;-63
2024/01/24 09:05:39;;;;;;;1.83;0.80;;;13.30;99.90;;;;;;4997307;28;20500;-62
2024/01/24 09:08:06;;;;;;;4.63;1.00;;;13.30;99.90;;;;;;4992330;28;20500;-63
2024/01/24 09:10:33;;;;;;;5.47;0.90;;;13.30;99.90;;;;;;4996966;28;20489;-63
2024/01/24 09:13:00;;;;;;;1.90;0.90;;;13.50;99.90;;;;;;4988076;28;20590;-63
2024/01/24 09:15:26;;;;;;;1.60;0.70;;;13.40;99.90;;;;;;4985203;28;20486;-63
2024/01/24 09:17:55;;;;;;;2.00;0.80;;;13.40;99.90;;;;;;4982636;28;20478;-64
2024/01/24 09:20:22;;;;;;;1.50;0.60;;;13.50;99.90;;;;;;4990342;28;20895;-62
2024/01/24 09:22:50;;;;;;;1.70;0.70;;;13.50;99.90;;;;;;4991753;28;21346;-64
2024/01/24 09:25:19;;;;;;;1.60;0.63;;;13.40;99.90;;;;;;4978816;28;20971;-63
2024/01/24 09:27:46;;;;;;;8.27;1.27;;;;;;;;;;4997037;28;20482;-64
2024/01/24 09:30:14;;;;;;;5.20;0.80;;;13.50;99.90;;;;;;4976709;28;20540;-64
2024/01/24 09:32:41;;;;;;;2.00;0.70;;;13.50;99.90;;;;;;4997897;28;20485;-64
2024/01/24 09:35:10;;;;;;;6.77;1.07;;;13.50;99.90;;;;;;4984810;28;20518;-65
2024/01/24 09:37:36;;;;;;;3.30;1.00;;;13.50;99.90;;;;;;4981810;28;21116;-64
2024/01/24 09:40:04;;;;;;;3.57;0.97;;;13.50;99.90;;;;;;4992292;28;20452;-70
2024/01/24 09:42:37;;;;;;;5.50;1.07;;;13.50;99.90;;;;;;4987380;28;20486;-68
2024/01/24 09:45:08;;;;;;;1.60;0.70;;;13.60;99.90;;;;;;4981064;28;20488;-71
2024/01/24 09:47:35;;;;;;;2.53;0.87;;;13.60;99.90;;;;;;4997460;28;20548;-71
2024/01/24 09:50:04;;;;;;;4.00;0.80;;;13.60;99.90;;;;;;4989651;28;20900;-70
2024/01/24 09:52:33;;;;;;;1.60;0.70;;;13.60;99.90;;;;;;4984587;28;20837;-70
2024/01/24 09:55:04;;;;;;;1.70;0.60;;;13.60;99.90;;;;;;4989176;28;20484;-71
2024/01/24 09:57:32;;;;;;;4.13;0.70;;;13.50;99.90;;;;;;4976434;28;20772;-73
2024/01/24 09:59:59;;;;;;;1.53;0.60;;;13.50;99.90;;;;;;4978542;28;20492;-73
2024/01/24 10:02:27;;;;;;;12.73;1.20;;;13.60;99.90;;;;;;4983980;28;20720;-71
2024/01/24 10:04:55;;;;;;;1.60;0.60;;;13.70;99.90;;;;;;4992745;28;20494;-69
2024/01/24 10:07:22;;;;;;;1.50;0.60;;;13.70;99.90;;;;;;4994557;28;20710;-74
2024/01/24 10:10:05;;;;;;;12.63;1.17;;;13.90;99.90;;;;;;4992155;28;20472;-71
2024/01/24 10:12:32;;;;;;;5.30;0.80;;;13.90;99.90;;;;;;4981688;28;20491;-70
2024/01/24 10:14:58;;;;;;;1.57;0.77;;;14.10;99.90;;;;;;4976221;28;20484;-71
2024/01/24 10:17:25;;;;;;;2.83;0.90;;;14.20;99.90;;;;;;4996422;28;20592;-71
2024/01/24 10:19:52;;;;;;;1.80;0.60;;;14.30;99.90;;;;;;4993068;28;20997;-71
2024/01/24 10:22:21;;;;;;;2.40;0.80;;;14.20;99.90;;;;;;4991458;28;20504;-71
2024/01/24 10:24:50;;;;;;;1.80;0.70;;;14.00;99.90;;;;;;4967303;28;22001;-71
2024/01/24 10:27:16;;;;;;;5.03;0.70;;;14.20;99.90;;;;;;4984594;28;20571;-67
2024/01/24 10:29:44;;;;;;;2.83;1.20;;;14.30;99.90;;;;;;4991841;28;20548;-67
2024/01/24 10:32:11;;;;;;;1.60;0.80;;;14.40;99.90;;;;;;4970905;28;21426;-72
2024/01/24 10:34:38;;;;;;;1.60;0.70;;;14.50;99.90;;;;;;4990200;28;20837;-67
2024/01/24 10:37:07;;;;;;;8.97;1.03;;;14.60;99.90;;;;;;4985453;28;20455;-67
2024/01/24 10:39:36;;;;;;;2.60;0.90;;;14.60;99.90;;;;;;4973710;28;20731;-72
2024/01/24 10:42:07;;;;;;;2.87;1.00;;;14.60;99.90;;;;;;4989461;28;20456;-69
2024/01/24 10:44:35;;;;;;;2.47;0.90;;;14.70;99.90;;;;;;4978523;28;21040;-67
2024/01/24 10:47:02;;;;;;;2.17;1.00;;;14.70;99.90;;;;;;4977315;28;20481;-69
2024/01/24 10:49:30;;;;;;;2.00;0.90;;;14.70;99.90;;;;;;4997396;28;21412;-69
2024/01/24 10:51:58;;;;;;;10.80;1.60;;;14.60;99.90;;;;;;4984299;28;20492;-62
2024/01/24 10:54:25;;;;;;;1.70;0.90;;;14.60;99.90;;;;;;4979446;28;20899;-64
2024/01/24 10:56:53;;;;;;;3.40;1.00;;;14.60;99.90;;;;;;4980908;28;20481;-65
2024/01/24 10:59:23;;;;;;;2.10;1.00;;;14.70;99.90;;;;;;4982727;28;20536;-66
2024/01/24 11:01:50;;;;;;;2.93;0.80;;;14.60;99.90;;;;;;4980217;28;20808;-64
2024/01/24 11:04:20;;;;;;;33.20;2.50;;;;;;;;;;4985509;28;20488;-66
2024/01/24 11:06:52;;;;;;;1.67;0.70;;;14.60;99.90;;;;;;4992279;28;20729;-65
2024/01/24 11:09:26;;;;;;;5.60;1.00;;;14.60;99.90;;;;;;4997406;28;20859;-67
2024/01/24 11:11:56;;;;;;;10.40;1.57;;;14.60;99.90;;;;;;4986051;28;20480;-64
2024/01/24 11:14:30;;;;;;;8.20;1.27;;;14.70;99.90;;;;;;4994489;28;20517;-64
2024/01/24 11:16:59;;;;;;;11.33;1.07;;;14.60;99.90;;;;;;4982597;28;20484;-65
2024/01/24 11:19:28;;;;;;;4.70;1.00;;;14.50;99.90;;;;;;4999752;28;20485;-65
2024/01/24 11:21:59;;;;;;;7.63;2.00;;;14.60;99.90;;;;;;4996039;28;20486;-65
2024/01/24 11:24:47;;;;;;;4.93;1.10;;;14.70;99.90;;;;;;4990175;28;20497;-64
2024/01/24 11:27:30;;;;;;;4.80;1.50;;;14.70;99.90;;;;;;4988187;28;20470;-66
2024/01/24 11:29:59;;;;;;;5.13;1.40;;;14.70;99.90;;;;;;4980179;28;20492;-65
2024/01/24 11:33:00;;;;;;;16.13;1.97;;;14.80;99.90;;;;;;4988512;28;21104;-64
2024/01/24 11:35:29;;;;;;;10.30;1.73;;;14.70;99.90;;;;;;4998882;28;20485;-65
2024/01/24 11:37:56;;;;;;;12.63;2.10;;;14.70;99.90;;;;;;4972723;28;20488;-65
2024/01/24 11:40:23;;;;;;;9.83;2.10;;;14.70;99.90;;;;;;4986725;28;20522;-65
2024/01/24 11:42:56;;;;;;;6.40;1.60;;;14.70;99.90;;;;;;4974848;28;20533;-67
2024/01/24 11:45:26;;;;;;;6.83;1.33;;;;;;;;;;4997026;28;20489;-64
2024/01/24 11:47:53;;;;;;;13.63;2.17;;;15.00;99.90;;;;;;4989715;28;20486;-64
2024/01/24 11:50:20;;;;;;;4.27;1.60;;;15.10;99.90;;;;;;4987722;28;20902;-65
2024/01/24 11:52:48;;;;;;;32.47;3.40;;;15.00;99.90;;;;;;4996579;28;20493;-64
2024/01/24 11:55:15;;;;;;;10.67;2.60;;;15.00;99.90;;;;;;4997373;28;20455;-65
2024/01/24 11:57:42;;;;;;;29.83;2.47;;;15.00;99.90;;;;;;4996418;28;20473;-67
2024/01/24 12:00:14;;;;;;;4.80;1.43;;;14.90;99.90;;;;;;4981155;28;20455;-67
2024/01/24 12:02:42;;;;;;;14.40;1.77;;;14.90;99.90;;;;;;4965982;28;20482;-73
2024/01/24 12:05:10;;;;;;;9.60;2.40;;;14.60;98.90;;;;;;4968948;28;20539;-68
2024/01/24 12:07:37;;;;;;;18.03;3.37;;;14.80;99.20;;;;;;4977915;28;20485;-69
2024/01/24 12:10:05;;;;;;;16.17;2.40;;;14.70;99.20;;;;;;4998993;28;20454;-70
2024/01/24 12:12:32;;;;;;;15.33;3.70;;;14.70;99.00;;;;;;4984826;28;20527;-68
2024/01/24 12:14:59;;;;;;;8.90;2.87;;;14.50;98.60;;;;;;4984884;28;20636;-70
2024/01/24 12:17:26;;;;;;;5.20;1.90;;;14.50;99.30;;;;;;4984232;28;20796;-71
2024/01/24 12:19:54;;;;;;;35.63;3.80;;;14.40;98.90;;;;;;4971998;28;20521;-71
2024/01/24 12:22:21;;;;;;;12.93;2.60;;;14.30;99.00;;;;;;4996793;28;21395;-73
2024/01/24 12:24:48;;;;;;;20.57;4.20;;;14.30;99.10;;;;;;4987424;28;20978;-71
2024/01/24 12:27:15;;;;;;;33.77;3.77;;;14.30;98.90;;;;;;4937758;28;20532;-70
2024/01/24 12:29:43;;;;;;;20.13;3.67;;;14.20;98.80;;;;;;4989137;28;20923;-68
2024/01/24 12:32:10;;;;;;;10.20;3.40;;;14.20;98.60;;;;;;4997564;28;20464;-72
2024/01/24 12:34:37;;;;;;;7.47;2.13;;;14.20;99.20;;;;;;4997498;28;20862;-68
2024/01/24 12:37:05;;;;;;;17.40;3.60;;;14.20;99.20;;;;;;4983895;28;20488;-69
2024/01/24 12:39:33;;;;;;;13.00;3.07;;;14.20;99.20;;;;;;4993942;28;20474;-69
2024/01/24 12:42:01;;;;;;;15.00;3.20;;;14.30;99.40;;;;;;4998947;28;20474;-69
2024/01/24 12:44:28;;;;;;;12.13;3.60;;;14.40;99.50;;;;;;4992706;28;20447;-69
2024/01/24 12:46:59;;;;;;;19.50;3.67;;;14.50;99.50;;;;;;5002545;28;20505;-68
2024/01/24 12:49:26;;;;;;;10.27;2.20;;;14.60;98.90;;;;;;4991275;28;20485;-71
2024/01/24 12:51:54;;;;;;;8.27;2.50;;;14.50;98.10;;;;;;4972690;28;20480;-72